Time;durP1;ratioP1;P1;durP2;ratioP2;P2;SDS_P1;SDS_P2;PMS_P1;PMS_P2;Temp;Humidity;BMP_temperature;BMP_pressure;BME280_temperature;BME280_humidity;BME280_pressure;Samples;Min_cycle;Max_cycle;Signal;HPM_P1;HPM_P2
2023/10/07 00:06:09;;;;;;;5.10;2.30;;;;;;;;;;20808057;28;20207;-76
2023/10/07 00:16:14;;;;;;;4.83;2.27;;;;;;;;;;20813985;28;20728;-76
2023/10/07 00:26:16;;;;;;;6.37;2.60;;;;;;;;;;20804312;28;20664;-76
2023/10/07 00:46:38;;;;;;;4.53;2.53;;;;;;;;;;20804300;28;20223;-76
2023/10/07 00:56:42;;;;;;;6.30;2.30;;;;;;;;;;20816783;28;20234;-75
2023/10/07 01:06:45;;;;;;;4.33;2.30;;;;;;;;;;20816728;28;20229;-75
2023/10/07 01:16:47;;;;;;;5.03;2.53;;;;;;;;;;20808959;28;20264;-77
2023/10/07 01:26:51;;;;;;;6.67;2.43;;;;;;;;;;20798276;28;20300;-77
2023/10/07 01:36:52;;;;;;;4.67;2.37;;;;;;;;;;20816878;28;20775;-76
2023/10/07 01:46:56;;;;;;;4.63;2.30;;;;;;;;;;20818303;28;20229;-75
2023/10/07 01:56:58;;;;;;;4.47;2.47;;;;;;;;;;20796917;28;20218;-75
2023/10/07 02:07:00;;;;;;;3.70;2.00;;;;;;;;;;20816328;28;20288;-77
2023/10/07 02:17:01;;;;;;;2.93;1.83;;;;;;;;;;20848097;22;20264;-76
2023/10/07 02:27:17;;;;;;;5.07;2.20;;;;;;;;;;20825359;28;20211;-77
2023/10/07 02:37:21;;;;;;;4.37;2.17;;;;;;;;;;20767209;28;20223;-75
2023/10/07 02:47:26;;;;;;;3.30;1.80;;;;;;;;;;20757989;28;20789;-76
2023/10/07 02:57:39;;;;;;;3.60;2.00;;;;;;;;;;20749975;28;20218;-76
2023/10/07 03:07:49;;;;;;;4.27;1.97;;;;;;;;;;20771633;28;20273;-76
2023/10/07 03:17:52;;;;;;;3.40;1.53;;;;;;;;;;20771798;28;20296;-76
2023/10/07 03:27:55;;;;;;;3.30;1.37;;;;;;;;;;20741997;28;20594;-76
2023/10/07 03:37:56;;;;;;;3.73;2.13;;;;;;;;;;20738142;28;20772;-76
2023/10/07 03:47:58;;;;;;;2.83;1.40;;;;;;;;;;20731197;28;20262;-76
2023/10/07 03:58:00;;;;;;;3.07;1.83;;;;;;;;;;20729611;28;20370;-76
2023/10/07 04:08:02;;;;;;;3.60;1.97;;;;;;;;;;20738725;28;20799;-76
2023/10/07 04:18:08;;;;;;;7.80;2.07;;;;;;;;;;20767311;28;20701;-75
2023/10/07 04:28:13;;;;;;;2.73;1.43;;;;;;;;;;20743079;28;20867;-75
2023/10/07 04:48:42;;;;;;;3.17;1.60;;;;;;;;;;20731708;28;20261;-76
2023/10/07 04:58:44;;;;;;;3.23;1.40;;;;;;;;;;20752367;28;20215;-76
2023/10/07 05:08:45;;;;;;;3.80;1.70;;;;;;;;;;20735412;28;20211;-76
2023/10/07 05:18:47;;;;;;;2.97;1.63;;;;;;;;;;20747210;28;20231;-77
2023/10/07 05:28:49;;;;;;;3.43;1.67;;;;;;;;;;20744027;28;20219;-75
2023/10/07 05:38:51;;;;;;;4.17;1.57;;;;;;;;;;20739694;28;20265;-74
2023/10/07 05:48:53;;;;;;;2.77;1.57;;;;;;;;;;20735486;28;20233;-76
2023/10/07 05:58:54;;;;;;;2.43;1.47;;;;;;;;;;20747707;28;20273;-76
2023/10/07 06:09:00;;;;;;;3.10;1.63;;;11.80;99.90;;;;;;20753733;28;20215;-76
2023/10/07 06:19:02;;;;;;;2.87;1.40;;;;;;;;;;20740794;28;20281;-76
2023/10/07 06:29:18;;;;;;;3.93;1.30;;;;;;;;;;20761739;28;20214;-75
2023/10/07 06:39:27;;;;;;;2.30;1.10;;;;;;;;;;20770831;28;20214;-75
2023/10/07 06:49:34;;;;;;;3.43;1.57;;;;;;;;;;20756107;28;20580;-76
2023/10/07 06:59:35;;;;;;;3.10;1.63;;;;;;;;;;20747072;28;20269;-76
2023/10/07 07:20:18;;;;;;;3.70;1.70;;;;;;;;;;20766433;28;20219;-75
2023/10/07 07:30:31;;;;;;;5.10;1.80;;;;;;;;;;20747426;28;20245;-78
2023/10/07 07:40:36;;;;;;;2.60;1.20;;;12.70;99.90;;;;;;20764522;28;20253;-75
2023/10/07 07:50:40;;;;;;;2.77;1.53;;;;;;;;;;20748171;28;20214;-76
2023/10/07 08:00:44;;;;;;;3.90;1.80;;;;;;;;;;20750629;28;20297;-75
2023/10/07 08:10:49;;;;;;;2.97;1.40;;;;;;;;;;20741958;28;20294;-76
2023/10/07 08:20:56;;;;;;;2.90;1.37;;;;;;;;;;20766451;22;20234;-77
2023/10/07 08:31:12;;;;;;;3.23;1.40;;;;;;;;;;20771339;28;20231;-77
2023/10/07 08:41:17;;;;;;;4.30;1.50;;;;;;;;;;20807338;28;20264;-76
2023/10/07 08:51:24;;;;;;;3.20;1.67;;;;;;;;;;20741250;28;20222;-76
2023/10/07 09:01:26;;;;;;;3.30;2.10;;;;;;;;;;20756785;28;20222;-76
2023/10/07 09:11:27;;;;;;;3.53;1.73;;;;;;;;;;20790831;28;20839;-76
2023/10/07 09:21:33;;;;;;;2.87;1.50;;;;;;;;;;20790865;28;20234;-77
2023/10/07 09:31:39;;;;;;;2.57;1.37;;;;;;;;;;20777585;28;20226;-77
2023/10/07 09:41:44;;;;;;;3.33;1.37;;;;;;;;;;20765579;28;20215;-74
2023/10/07 09:51:50;;;;;;;4.77;1.60;;;;;;;;;;20773680;28;20216;-75
2023/10/07 10:02:05;;;;;;;3.23;1.20;;;;;;;;;;20800007;28;20620;-75
2023/10/07 10:12:23;;;;;;;2.70;1.40;;;;;;;;;;20808964;28;20222;-75
2023/10/07 10:22:26;;;;;;;2.80;1.37;;;;;;;;;;20817684;28;20230;-73
2023/10/07 10:32:28;;;;;;;2.20;1.30;;;;;;;;;;20811550;28;20298;-75
2023/10/07 10:42:30;;;;;;;2.63;1.20;;;;;;;;;;20808598;28;20223;-75
2023/10/07 10:52:32;;;;;;;2.30;1.30;;;;;;;;;;20794852;28;20218;-75
2023/10/07 11:02:39;;;;;;;3.17;1.40;;;;;;;;;;20806184;28;20210;-75
2023/10/07 11:12:45;;;;;;;2.80;1.03;;;;;;;;;;20800286;28;20218;-75
2023/10/07 11:22:48;;;;;;;3.83;1.20;;;;;;;;;;20793731;28;20226;-75
2023/10/07 11:32:50;;;;;;;1.40;0.97;;;;;;;;;;20819976;28;20245;-75
2023/10/07 11:42:53;;;;;;;1.97;0.80;;;;;;;;;;20818392;28;20540;-75
2023/10/07 11:52:55;;;;;;;2.50;1.10;;;;;;;;;;20857598;28;20214;-74
2023/10/07 12:03:00;;;;;;;4.90;1.07;;;;;;;;;;20898442;28;20696;-74
2023/10/07 12:13:03;;;;;;;3.63;1.20;;;;;;;;;;20894526;28;20589;-75
2023/10/07 12:23:04;;;;;;;1.67;1.00;;;;;;;;;;20869522;28;20272;-74
2023/10/07 12:33:09;;;;;;;2.10;0.93;;;;;;;;;;20878990;28;20256;-75
2023/10/07 12:43:11;;;;;;;4.63;1.07;;;;;;;;;;20882526;28;20231;-74
2023/10/07 12:53:13;;;;;;;2.57;0.90;;;;;;;;;;20881053;28;20226;-74
2023/10/07 13:03:15;;;;;;;5.17;1.20;;;;;;;;;;20894789;28;20720;-74
2023/10/07 13:13:21;;;;;;;1.93;1.20;;;;;;;;;;20878260;28;20786;-74
2023/10/07 13:23:23;;;;;;;2.87;1.30;;;;;;;;;;20879236;28;20237;-74
2023/10/07 13:33:24;;;;;;;2.37;1.27;;;;;;;;;;20879408;28;20267;-74
2023/10/07 13:43:27;;;;;;;2.10;1.03;;;;;;;;;;20876771;28;20255;-74
2023/10/07 14:03:50;;;;;;;2.67;1.10;;;;;;;;;;20873621;28;20218;-74
2023/10/07 14:13:52;;;;;;;2.13;1.07;;;;;;;;;;20867785;28;20214;-74
2023/10/07 14:23:54;;;;;;;4.03;1.00;;;;;;;;;;21009213;22;20836;-87
2023/10/07 14:33:56;;;;;;;2.40;1.10;;;;;;;;;;21020992;28;20280;-87
2023/10/07 14:43:58;;;;;;;2.90;1.10;;;;;;;;;;21009315;28;20260;-87
2023/10/07 14:54:00;;;;;;;2.33;0.90;;;;;;;;;;20995639;28;20270;-87
2023/10/07 15:04:02;;;;;;;1.83;1.00;;;;;;;;;;21023058;28;20220;-88
2023/10/07 15:14:04;;;;;;;2.63;1.10;;;;;;;;;;21008067;28;20225;-88
2023/10/07 15:24:06;;;;;;;3.30;1.13;;;;;;;;;;21044028;28;20255;-88
2023/10/07 15:34:09;;;;;;;2.10;1.20;;;;;;;;;;21020277;28;20225;-88
2023/10/07 15:44:12;;;;;;;3.57;1.33;;;;;;;;;;20994787;28;20290;-87
2023/10/07 15:54:14;;;;;;;2.63;1.50;;;;;;;;;;21009382;28;20220;-87
2023/10/07 16:04:16;;;;;;;3.37;1.87;;;;;;;;;;21036710;28;20562;-87
2023/10/07 16:14:18;;;;;;;2.87;1.53;;;;;;;;;;21029335;28;20221;-87
2023/10/07 16:24:22;;;;;;;2.60;1.00;;;;;;;;;;20995722;28;20228;-87
2023/10/07 16:34:23;;;;;;;5.17;1.20;;;;;;;;;;21034637;28;20221;-87
2023/10/07 16:44:25;;;;;;;3.93;1.17;;;;;;;;;;20987415;28;20582;-87
2023/10/07 16:54:27;;;;;;;3.00;0.90;;;;;;;;;;21012013;28;20682;-87
2023/10/07 17:04:28;;;;;;;2.33;1.20;;;;;;;;;;21034408;28;20208;-86
2023/10/07 17:14:32;;;;;;;2.93;1.10;;;;;;;;;;21003913;28;20248;-86
2023/10/07 17:24:39;;;;;;;2.03;0.90;;;;;;;;;;21018807;28;20655;-87
2023/10/07 17:34:40;;;;;;;4.17;1.30;;;;;;;;;;21025338;28;20236;-87
2023/10/07 17:44:42;;;;;;;3.00;1.53;;;;;;;;;;21032390;28;20209;-86
2023/10/07 17:54:44;;;;;;;3.17;1.30;;;;;;;;;;21043913;28;20585;-87
2023/10/07 18:04:49;;;;;;;2.03;1.20;;;;;;;;;;21026661;28;20217;-87
2023/10/07 18:14:51;;;;;;;3.13;1.20;;;;;;;;;;21014164;28;20227;-86
2023/10/07 18:24:52;;;;;;;3.07;1.43;;;;;;;;;;21021786;28;20224;-86
2023/10/07 18:34:54;;;;;;;2.70;1.50;;;;;;;;;;21002636;28;20767;-87
2023/10/07 18:44:56;;;;;;;1.83;1.17;;;;;;;;;;21010072;28;20220;-87
2023/10/07 18:54:58;;;;;;;2.60;1.30;;;;;;;;;;21004419;28;20775;-86
2023/10/07 19:04:59;;;;;;;2.73;1.20;;;;;;;;;;21012320;28;20585;-87
2023/10/07 19:15:01;;;;;;;2.37;1.20;;;;;;;;;;21058394;28;20228;-86
2023/10/07 19:25:04;;;;;;;2.17;1.00;;;;;;;;;;21022164;28;20229;-86
2023/10/07 19:35:06;;;;;;;1.93;0.93;;;17.80;99.90;;;;;;21076948;28;20279;-87
2023/10/07 19:45:10;;;;;;;2.00;1.00;;;;;;;;;;20978507;28;20266;-87
2023/10/07 19:55:12;;;;;;;4.93;1.47;;;;;;;;;;20996865;28;20281;-87
2023/10/07 20:05:14;;;;;;;4.63;1.53;;;;;;;;;;20995805;28;20210;-87
2023/10/07 20:15:16;;;;;;;2.37;1.10;;;;;;;;;;21022162;28;20314;-87
2023/10/07 20:25:18;;;;;;;2.87;1.00;;;;;;;;;;20978177;28;20232;-87
2023/10/07 20:35:22;;;;;;;1.80;0.93;;;;;;;;;;21032072;28;20216;-87
2023/10/07 20:45:24;;;;;;;2.53;1.03;;;;;;;;;;21009833;28;20212;-88
2023/10/07 20:55:25;;;;;;;2.30;1.00;;;;;;;;;;21044777;28;20716;-88
2023/10/07 21:05:27;;;;;;;3.77;2.03;;;;;;;;;;20995548;28;20250;-88
2023/10/07 21:15:35;;;;;;;2.33;1.07;;;;;;;;;;20987709;28;20229;-87
2023/10/07 21:25:39;;;;;;;2.93;1.20;;;;;;;;;;21031518;28;20224;-88
2023/10/07 21:35:41;;;;;;;3.30;1.00;;;;;;;;;;21031575;22;20224;-66
2023/10/07 21:45:43;;;;;;;2.80;1.10;;;;;;;;;;21014285;28;20238;-66
2023/10/07 21:55:46;;;;;;;2.57;1.10;;;;;;;;;;21117471;28;20253;-66
2023/10/07 22:05:48;;;;;;;2.63;1.10;;;;;;;;;;21123195;28;20284;-66
2023/10/07 22:15:57;;;;;;;1.90;1.17;;;;;;;;;;21098641;28;20268;-66
2023/10/07 22:26:00;;;;;;;2.20;1.07;;;;;;;;;;21128904;28;20261;-65
2023/10/07 22:36:17;;;;;;;2.07;0.90;;;;;;;;;;21145457;27;20219;-66
2023/10/07 22:46:24;;;;;;;1.50;0.90;;;;;;;;;;21142693;28;20228;-66
2023/10/07 22:56:25;;;;;;;2.87;1.00;;;;;;;;;;21128535;28;20214;-66
2023/10/07 23:06:39;;;;;;;1.90;1.17;;;;;;;;;;21142407;28;20212;-66
2023/10/07 23:16:41;;;;;;;1.47;0.80;;;;;;;;;;21141039;28;20231;-66
2023/10/07 23:26:43;;;;;;;2.27;1.00;;;;;;;;;;21108667;28;20212;-65
2023/10/07 23:36:45;;;;;;;2.70;0.90;;;;;;;;;;21105415;27;20281;-65
2023/10/07 23:46:51;;;;;;;2.90;1.20;;;;;;;;;;21128165;28;20238;-65
2023/10/07 23:56:52;;;;;;;2.27;0.90;;;;;;;;;;21121442;28;20680;-65
